Time;durP1;ratioP1;P1;durP2;ratioP2;P2;SDS_P1;SDS_P2;PMS_P1;PMS_P2;Temp;Humidity;BMP_temperature;BMP_pressure;BME280_temperature;BME280_humidity;BME280_pressure;Samples;Min_cycle;Max_cycle;Signal;HPM_P1;HPM_P2
2022/09/21 00:00:00;;;;;;;5.6;1.5;;;;;;;12.6;100.0;102380;;;;
2022/09/21 00:01:04;;;;;;;5.6;1.5;;;;;;;12.5;100.0;102380;;;;
2022/09/21 00:02:00;;;;;;;5.6;1.5;;;;;;;12.5;100.0;102380;;;;
2022/09/21 00:03:00;;;;;;;5.6;1.5;;;;;;;12.6;100.0;102380;;;;
2022/09/21 00:04:01;;;;;;;5.6;1.5;;;;;;;12.6;100.0;102380;;;;
2022/09/21 00:05:00;;;;;;;5.6;1.5;;;;;;;12.6;100.0;102380;;;;
2022/09/21 00:06:01;;;;;;;5.6;1.5;;;;;;;12.6;100.0;102380;;;;
2022/09/21 00:07:00;;;;;;;5.6;1.5;;;;;;;12.5;100.0;102380;;;;
2022/09/21 00:08:01;;;;;;;5.6;1.5;;;;;;;12.5;100.0;102380;;;;
2022/09/21 00:09:02;;;;;;;5.6;1.5;;;;;;;12.4;100.0;102380;;;;
2022/09/21 00:10:00;;;;;;;5.6;1.5;;;;;;;12.4;100.0;102380;;;;
2022/09/21 00:11:00;;;;;;;5.6;1.5;;;;;;;12.2;100.0;102380;;;;
2022/09/21 00:12:01;;;;;;;5.6;1.5;;;;;;;12.2;100.0;102380;;;;
2022/09/21 00:13:01;;;;;;;5.6;1.5;;;;;;;12.2;100.0;102380;;;;
2022/09/21 00:14:03;;;;;;;5.6;1.5;;;;;;;12.2;100.0;102380;;;;
2022/09/21 00:15:00;;;;;;;5.6;1.5;;;;;;;12.4;100.0;102380;;;;
2022/09/21 00:16:00;;;;;;;0.7;0.7;;;;;;;12.4;100.0;102380;;;;
2022/09/21 00:17:00;;;;;;;0.7;0.7;;;;;;;12.4;100.0;102380;;;;
2022/09/21 00:18:00;;;;;;;0.7;0.7;;;;;;;12.4;100.0;102380;;;;
2022/09/21 00:19:00;;;;;;;0.7;0.7;;;;;;;12.4;100.0;102380;;;;
2022/09/21 00:20:01;;;;;;;0.7;0.7;;;;;;;12.4;100.0;102380;;;;
2022/09/21 00:21:01;;;;;;;0.7;0.7;;;;;;;12.4;100.0;102380;;;;
2022/09/21 00:22:00;;;;;;;0.7;0.7;;;;;;;12.4;100.0;102380;;;;
2022/09/21 00:23:00;;;;;;;0.7;0.7;;;;;;;12.4;100.0;102380;;;;
2022/09/21 00:24:01;;;;;;;0.7;0.7;;;;;;;12.4;100.0;102380;;;;
2022/09/21 00:25:02;;;;;;;0.7;0.7;;;;;;;12.4;100.0;102380;;;;
2022/09/21 00:26:10;;;;;;;0.7;0.7;;;;;;;12.2;100.0;102380;;;;
2022/09/21 00:27:00;;;;;;;0.7;0.7;;;;;;;12.2;100.0;102380;;;;
2022/09/21 00:28:00;;;;;;;0.7;0.7;;;;;;;12.2;100.0;102380;;;;
2022/09/21 00:29:01;;;;;;;0.7;0.7;;;;;;;12.1;100.0;102380;;;;
2022/09/21 00:30:02;;;;;;;0.7;0.7;;;;;;;12.1;100.0;102380;;;;
2022/09/21 00:31:01;;;;;;;0.7;0.7;;;;;;;12.1;100.0;102380;;;;
2022/09/21 00:32:00;;;;;;;0.7;0.7;;;;;;;12.1;100.0;102380;;;;
2022/09/21 00:33:00;;;;;;;0.7;0.7;;;;;;;12.2;100.0;102370;;;;
2022/09/21 00:34:02;;;;;;;0.7;0.7;;;;;;;12.2;100.0;102370;;;;
2022/09/21 00:35:01;;;;;;;0.7;0.7;;;;;;;12.2;100.0;102370;;;;
2022/09/21 00:36:09;;;;;;;0.6;0.6;;;;;;;12.2;100.0;102370;;;;
2022/09/21 00:37:00;;;;;;;0.6;0.6;;;;;;;12.2;100.0;102370;;;;
2022/09/21 00:38:01;;;;;;;0.6;0.6;;;;;;;12.2;100.0;102370;;;;
2022/09/21 00:39:00;;;;;;;0.6;0.6;;;;;;;12.2;100.0;102370;;;;
2022/09/21 00:40:00;;;;;;;0.6;0.6;;;;;;;12.2;100.0;102370;;;;
2022/09/21 00:41:00;;;;;;;0.6;0.6;;;;;;;12.2;100.0;102370;;;;
2022/09/21 00:42:00;;;;;;;0.6;0.6;;;;;;;12.2;100.0;102370;;;;
2022/09/21 00:43:10;;;;;;;0.6;0.6;;;;;;;12.2;100.0;102370;;;;
2022/09/21 00:44:10;;;;;;;0.6;0.6;;;;;;;12.1;100.0;102380;;;;
2022/09/21 00:45:00;;;;;;;0.6;0.6;;;;;;;12.1;100.0;102380;;;;
2022/09/21 00:46:02;;;;;;;0.6;0.6;;;;;;;12.1;100.0;102380;;;;
2022/09/21 00:47:06;;;;;;;0.6;0.6;;;;;;;12.1;100.0;102370;;;;
2022/09/21 00:48:00;;;;;;;0.6;0.6;;;;;;;12.1;100.0;102370;;;;
2022/09/21 00:49:00;;;;;;;0.6;0.6;;;;;;;12.1;100.0;102370;;;;
2022/09/21 00:50:02;;;;;;;0.6;0.6;;;;;;;12.1;100.0;102370;;;;
2022/09/21 00:51:03;;;;;;;0.6;0.6;;;;;;;12.0;100.0;102380;;;;
2022/09/21 00:52:01;;;;;;;0.6;0.6;;;;;;;12.0;100.0;102380;;;;
2022/09/21 00:53:02;;;;;;;0.6;0.6;;;;;;;12.0;100.0;102380;;;;
2022/09/21 00:54:02;;;;;;;0.6;0.6;;;;;;;12.0;100.0;102380;;;;
2022/09/21 00:55:03;;;;;;;0.6;0.6;;;;;;;11.9;100.0;102380;;;;
2022/09/21 00:56:01;;;;;;;0.7;0.7;;;;;;;11.9;100.0;102380;;;;
2022/09/21 00:57:01;;;;;;;0.7;0.7;;;;;;;12.0;100.0;102380;;;;
2022/09/21 00:58:04;;;;;;;0.7;0.7;;;;;;;12.0;100.0;102380;;;;
2022/09/21 00:59:00;;;;;;;0.7;0.7;;;;;;;11.9;100.0;102380;;;;
2022/09/21 01:00:03;;;;;;;0.7;0.7;;;;;;;11.9;100.0;102380;;;;
2022/09/21 01:01:00;;;;;;;0.7;0.7;;;;;;;11.9;100.0;102380;;;;
2022/09/21 01:02:00;;;;;;;0.7;0.7;;;;;;;11.9;100.0;102380;;;;
2022/09/21 01:03:00;;;;;;;0.7;0.7;;;;;;;11.9;100.0;102380;;;;
2022/09/21 01:04:00;;;;;;;0.7;0.7;;;;;;;11.9;100.0;102380;;;;
2022/09/21 01:05:01;;;;;;;0.7;0.7;;;;;;;11.8;100.0;102380;;;;
2022/09/21 01:06:00;;;;;;;0.7;0.7;;;;;;;11.8;100.0;102380;;;;
2022/09/21 01:07:04;;;;;;;0.7;0.7;;;;;;;11.8;100.0;102380;;;;
2022/09/21 01:08:02;;;;;;;0.7;0.7;;;;;;;11.8;100.0;102380;;;;
2022/09/21 01:09:00;;;;;;;0.7;0.7;;;;;;;11.8;100.0;102380;;;;
2022/09/21 01:10:04;;;;;;;0.7;0.7;;;;;;;11.8;100.0;102380;;;;
2022/09/21 01:11:11;;;;;;;0.7;0.7;;;;;;;11.8;100.0;102380;;;;
2022/09/21 01:12:01;;;;;;;0.7;0.7;;;;;;;11.8;100.0;102380;;;;
2022/09/21 01:13:04;;;;;;;0.7;0.7;;;;;;;11.7;100.0;102380;;;;
2022/09/21 01:14:10;;;;;;;0.7;0.7;;;;;;;11.6;100.0;102380;;;;
2022/09/21 01:15:10;;;;;;;0.7;0.7;;;;;;;11.6;100.0;102380;;;;
2022/09/21 01:16:10;;;;;;;0.7;0.7;;;;;;;11.6;100.0;102380;;;;
2022/09/21 01:17:05;;;;;;;0.7;0.7;;;;;;;11.6;100.0;102380;;;;
2022/09/21 01:18:10;;;;;;;0.7;0.7;;;;;;;11.6;100.0;102380;;;;
2022/09/21 01:19:10;;;;;;;0.7;0.7;;;;;;;11.6;100.0;102380;;;;
2022/09/21 01:20:00;;;;;;;0.7;0.7;;;;;;;11.6;100.0;102380;;;;
2022/09/21 01:21:07;;;;;;;0.7;0.7;;;;;;;11.6;100.0;102380;;;;
2022/09/21 01:22:01;;;;;;;0.7;0.7;;;;;;;11.6;100.0;102380;;;;
2022/09/21 01:23:07;;;;;;;0.7;0.7;;;;;;;11.5;100.0;102380;;;;
2022/09/21 01:24:03;;;;;;;0.7;0.7;;;;;;;11.5;100.0;102380;;;;
2022/09/21 01:25:09;;;;;;;0.7;0.7;;;;;;;11.5;100.0;102380;;;;
2022/09/21 01:26:03;;;;;;;0.7;0.7;;;;;;;11.5;100.0;102380;;;;
2022/09/21 01:27:01;;;;;;;0.7;0.7;;;;;;;11.4;100.0;102380;;;;
2022/09/21 01:28:06;;;;;;;0.7;0.7;;;;;;;11.4;100.0;102380;;;;
2022/09/21 01:29:00;;;;;;;0.7;0.7;;;;;;;11.4;100.0;102380;;;;
2022/09/21 01:30:03;;;;;;;0.7;0.7;;;;;;;11.4;100.0;102380;;;;
2022/09/21 01:31:04;;;;;;;0.7;0.7;;;;;;;11.3;100.0;102380;;;;
2022/09/21 01:32:10;;;;;;;0.7;0.7;;;;;;;11.3;100.0;102390;;;;
2022/09/21 01:33:10;;;;;;;0.7;0.7;;;;;;;11.3;100.0;102390;;;;
2022/09/21 01:34:06;;;;;;;0.7;0.7;;;;;;;11.3;100.0;102390;;;;
2022/09/21 01:35:01;;;;;;;0.7;0.7;;;;;;;11.2;100.0;102380;;;;
2022/09/21 01:36:04;;;;;;;1.7;1.6;;;;;;;11.2;100.0;102380;;;;
2022/09/21 01:37:03;;;;;;;1.7;1.6;;;;;;;11.2;100.0;102390;;;;
2022/09/21 01:38:02;;;;;;;1.7;1.6;;;;;;;11.2;100.0;102390;;;;
2022/09/21 01:39:04;;;;;;;1.7;1.6;;;;;;;11.2;100.0;102380;;;;
2022/09/21 01:40:04;;;;;;;1.7;1.6;;;;;;;11.2;100.0;102380;;;;
2022/09/21 01:41:03;;;;;;;1.7;1.6;;;;;;;11.1;100.0;102380;;;;
2022/09/21 01:42:01;;;;;;;1.7;1.6;;;;;;;11.1;100.0;102380;;;;
2022/09/21 01:43:01;;;;;;;1.7;1.6;;;;;;;11.1;100.0;102380;;;;
2022/09/21 01:44:07;;;;;;;1.7;1.6;;;;;;;11.1;100.0;102380;;;;
2022/09/21 01:45:02;;;;;;;1.7;1.6;;;;;;;11.2;100.0;102380;;;;
2022/09/21 01:46:02;;;;;;;1.7;1.6;;;;;;;11.2;100.0;102380;;;;
2022/09/21 01:47:01;;;;;;;1.7;1.6;;;;;;;11.1;100.0;102380;;;;
2022/09/21 01:48:02;;;;;;;1.7;1.6;;;;;;;11.1;100.0;102380;;;;
2022/09/21 01:49:05;;;;;;;1.7;1.6;;;;;;;11.1;100.0;102380;;;;
2022/09/21 01:50:02;;;;;;;1.7;1.6;;;;;;;11.1;100.0;102380;;;;
2022/09/21 01:51:02;;;;;;;1.7;1.6;;;;;;;11.1;100.0;102380;;;;
2022/09/21 01:52:05;;;;;;;1.7;1.6;;;;;;;11.1;100.0;102380;;;;
2022/09/21 01:53:04;;;;;;;1.7;1.6;;;;;;;11.1;100.0;102380;;;;
2022/09/21 01:54:06;;;;;;;1.7;1.6;;;;;;;11.1;100.0;102380;;;;
2022/09/21 01:55:04;;;;;;;3.4;2.8;;;;;;;11.0;100.0;102380;;;;
2022/09/21 01:56:04;;;;;;;3.4;2.8;;;;;;;11.0;100.0;102380;;;;
2022/09/21 01:57:05;;;;;;;3.4;2.8;;;;;;;11.1;100.0;102380;;;;
2022/09/21 01:58:06;;;;;;;3.4;2.8;;;;;;;11.1;100.0;102380;;;;
2022/09/21 01:59:05;;;;;;;3.4;2.8;;;;;;;11.0;100.0;102380;;;;
2022/09/21 02:00:00;;;;;;;3.4;2.8;;;;;;;11.0;100.0;102380;;;;
2022/09/21 02:01:01;;;;;;;3.4;2.8;;;;;;;11.0;100.0;102380;;;;
2022/09/21 02:02:03;;;;;;;3.4;2.8;;;;;;;11.0;100.0;102380;;;;
2022/09/21 02:03:04;;;;;;;3.4;2.8;;;;;;;11.0;100.0;102380;;;;
2022/09/21 02:04:04;;;;;;;3.4;2.8;;;;;;;11.0;100.0;102380;;;;
2022/09/21 02:05:01;;;;;;;3.4;2.8;;;;;;;11.0;100.0;102370;;;;
2022/09/21 02:06:00;;;;;;;3.4;2.8;;;;;;;11.0;100.0;102370;;;;
2022/09/21 02:07:00;;;;;;;3.4;2.8;;;;;;;11.0;100.0;102370;;;;
2022/09/21 02:08:00;;;;;;;3.4;2.8;;;;;;;11.0;100.0;102370;;;;
2022/09/21 02:09:00;;;;;;;3.4;2.8;;;;;;;10.9;100.0;102380;;;;
2022/09/21 02:10:01;;;;;;;3.4;2.8;;;;;;;10.9;100.0;102380;;;;
2022/09/21 02:11:01;;;;;;;3.4;2.8;;;;;;;10.9;100.0;102380;;;;
2022/09/21 02:12:01;;;;;;;3.4;2.8;;;;;;;10.9;100.0;102380;;;;
2022/09/21 02:13:01;;;;;;;3.4;2.8;;;;;;;10.8;100.0;102380;;;;
2022/09/21 02:14:00;;;;;;;3.4;2.8;;;;;;;10.8;100.0;102380;;;;
2022/09/21 02:15:01;;;;;;;0.8;0.8;;;;;;;10.9;100.0;102380;;;;
2022/09/21 02:16:00;;;;;;;0.8;0.8;;;;;;;10.9;100.0;102380;;;;
2022/09/21 02:17:10;;;;;;;0.8;0.8;;;;;;;10.9;100.0;102380;;;;
2022/09/21 02:18:10;;;;;;;0.8;0.8;;;;;;;10.9;100.0;102380;;;;
2022/09/21 02:19:01;;;;;;;0.8;0.8;;;;;;;10.9;100.0;102380;;;;
2022/09/21 02:20:07;;;;;;;0.8;0.8;;;;;;;10.9;100.0;102380;;;;
2022/09/21 02:21:02;;;;;;;0.8;0.8;;;;;;;10.7;100.0;102380;;;;
2022/09/21 02:22:04;;;;;;;0.8;0.8;;;;;;;10.7;100.0;102380;;;;
2022/09/21 02:23:10;;;;;;;0.8;0.8;;;;;;;10.7;100.0;102380;;;;
2022/09/21 02:24:07;;;;;;;0.8;0.8;;;;;;;10.7;100.0;102380;;;;
2022/09/21 02:25:06;;;;;;;0.8;0.8;;;;;;;10.7;100.0;102380;;;;
2022/09/21 02:26:00;;;;;;;0.8;0.8;;;;;;;10.7;100.0;102380;;;;
2022/09/21 02:27:03;;;;;;;0.8;0.8;;;;;;;10.7;100.0;102380;;;;
2022/09/21 02:28:05;;;;;;;0.8;0.8;;;;;;;10.7;100.0;102380;;;;
2022/09/21 02:29:10;;;;;;;0.8;0.8;;;;;;;10.7;100.0;102380;;;;
2022/09/21 02:30:01;;;;;;;0.8;0.8;;;;;;;10.7;100.0;102380;;;;
2022/09/21 02:31:06;;;;;;;0.8;0.8;;;;;;;10.7;100.0;102380;;;;
2022/09/21 02:32:01;;;;;;;0.8;0.8;;;;;;;10.7;100.0;102380;;;;
2022/09/21 02:33:10;;;;;;;0.8;0.8;;;;;;;10.7;100.0;102390;;;;
2022/09/21 02:34:00;;;;;;;0.8;0.8;;;;;;;10.7;100.0;102390;;;;
2022/09/21 02:35:07;;;;;;;1.2;1.2;;;;;;;10.7;100.0;102380;;;;
2022/09/21 02:36:10;;;;;;;1.2;1.2;;;;;;;10.7;100.0;102380;;;;
2022/09/21 02:37:10;;;;;;;1.2;1.2;;;;;;;10.7;100.0;102380;;;;
2022/09/21 02:38:03;;;;;;;1.2;1.2;;;;;;;10.7;100.0;102380;;;;
2022/09/21 02:39:06;;;;;;;1.2;1.2;;;;;;;10.7;100.0;102390;;;;
2022/09/21 02:40:03;;;;;;;1.2;1.2;;;;;;;10.7;100.0;102390;;;;
2022/09/21 02:41:07;;;;;;;1.2;1.2;;;;;;;10.7;100.0;102390;;;;
2022/09/21 02:42:04;;;;;;;1.2;1.2;;;;;;;10.7;100.0;102390;;;;
2022/09/21 02:43:08;;;;;;;1.2;1.2;;;;;;;10.6;100.0;102390;;;;
2022/09/21 02:44:00;;;;;;;1.2;1.2;;;;;;;10.6;100.0;102390;;;;
2022/09/21 02:45:08;;;;;;;1.2;1.2;;;;;;;10.6;100.0;102390;;;;
2022/09/21 02:46:04;;;;;;;1.2;1.2;;;;;;;10.6;100.0;102390;;;;
2022/09/21 02:47:03;;;;;;;1.2;1.2;;;;;;;10.6;100.0;102380;;;;
2022/09/21 02:48:07;;;;;;;1.2;1.2;;;;;;;10.6;100.0;102380;;;;
2022/09/21 02:49:07;;;;;;;1.2;1.2;;;;;;;10.6;100.0;102380;;;;
2022/09/21 02:50:03;;;;;;;1.2;1.2;;;;;;;10.6;100.0;102380;;;;
2022/09/21 02:51:05;;;;;;;1.2;1.2;;;;;;;10.6;100.0;102380;;;;
2022/09/21 02:52:04;;;;;;;1.2;1.2;;;;;;;10.6;100.0;102380;;;;
2022/09/21 02:53:01;;;;;;;1.2;1.2;;;;;;;10.6;100.0;102390;;;;
2022/09/21 02:54:02;;;;;;;1.2;1.2;;;;;;;10.6;100.0;102390;;;;
2022/09/21 02:55:00;;;;;;;1.1;1.1;;;;;;;10.6;100.0;102380;;;;
2022/09/21 02:56:03;;;;;;;1.1;1.1;;;;;;;10.6;100.0;102380;;;;
2022/09/21 02:57:01;;;;;;;1.1;1.1;;;;;;;10.6;100.0;102380;;;;
2022/09/21 02:58:03;;;;;;;1.1;1.1;;;;;;;10.6;100.0;102380;;;;
2022/09/21 02:59:03;;;;;;;1.1;1.1;;;;;;;10.5;100.0;102380;;;;
2022/09/21 03:00:00;;;;;;;1.1;1.1;;;;;;;10.5;100.0;102380;;;;
2022/09/21 03:01:00;;;;;;;1.1;1.1;;;;;;;10.5;100.0;102380;;;;
2022/09/21 03:02:00;;;;;;;1.1;1.1;;;;;;;10.5;100.0;102380;;;;
2022/09/21 03:03:10;;;;;;;1.1;1.1;;;;;;;10.4;100.0;102380;;;;
2022/09/21 03:04:00;;;;;;;1.1;1.1;;;;;;;10.4;100.0;102380;;;;
2022/09/21 03:05:00;;;;;;;1.1;1.1;;;;;;;10.5;100.0;102380;;;;
2022/09/21 03:06:01;;;;;;;1.1;1.1;;;;;;;10.5;100.0;102380;;;;
2022/09/21 03:07:00;;;;;;;1.1;1.1;;;;;;;10.4;100.0;102380;;;;
2022/09/21 03:08:00;;;;;;;1.1;1.1;;;;;;;10.4;100.0;102380;;;;
2022/09/21 03:09:00;;;;;;;1.1;1.1;;;;;;;10.4;100.0;102380;;;;
2022/09/21 03:10:00;;;;;;;1.1;1.1;;;;;;;10.4;100.0;102380;;;;
2022/09/21 03:11:00;;;;;;;1.1;1.1;;;;;;;10.4;100.0;102380;;;;
2022/09/21 03:12:00;;;;;;;1.1;1.1;;;;;;;10.4;100.0;102380;;;;
2022/09/21 03:13:00;;;;;;;1.1;1.1;;;;;;;10.3;100.0;102380;;;;
2022/09/21 03:14:01;;;;;;;1.1;1.1;;;;;;;10.3;100.0;102380;;;;
2022/09/21 03:15:00;;;;;;;0.8;0.8;;;;;;;10.3;100.0;102380;;;;
2022/09/21 03:16:01;;;;;;;0.8;0.8;;;;;;;10.3;100.0;102380;;;;
2022/09/21 03:17:00;;;;;;;0.8;0.8;;;;;;;10.3;100.0;102380;;;;
2022/09/21 03:18:00;;;;;;;0.8;0.8;;;;;;;10.3;100.0;102380;;;;
2022/09/21 03:19:00;;;;;;;0.8;0.8;;;;;;;10.2;100.0;102380;;;;
2022/09/21 03:20:00;;;;;;;0.8;0.8;;;;;;;10.2;100.0;102380;;;;
2022/09/21 03:21:01;;;;;;;0.8;0.8;;;;;;;10.2;100.0;102390;;;;
2022/09/21 03:22:00;;;;;;;0.8;0.8;;;;;;;10.2;100.0;102390;;;;
2022/09/21 03:23:00;;;;;;;0.8;0.8;;;;;;;10.1;100.0;102390;;;;
2022/09/21 03:24:00;;;;;;;0.8;0.8;;;;;;;10.1;100.0;102390;;;;
2022/09/21 03:25:00;;;;;;;0.8;0.8;;;;;;;10.1;100.0;102390;;;;
2022/09/21 03:26:00;;;;;;;0.8;0.8;;;;;;;10.1;100.0;102390;;;;
2022/09/21 03:27:00;;;;;;;0.8;0.8;;;;;;;10.1;100.0;102390;;;;
2022/09/21 03:28:00;;;;;;;0.8;0.8;;;;;;;10.1;100.0;102390;;;;
2022/09/21 03:29:00;;;;;;;0.8;0.8;;;;;;;10.1;100.0;102390;;;;
2022/09/21 03:30:02;;;;;;;0.8;0.8;;;;;;;10.1;100.0;102390;;;;
2022/09/21 03:31:00;;;;;;;0.8;0.8;;;;;;;10.1;100.0;102390;;;;
2022/09/21 03:32:00;;;;;;;0.8;0.8;;;;;;;10.1;100.0;102390;;;;
2022/09/21 03:33:00;;;;;;;0.8;0.8;;;;;;;10.0;100.0;102390;;;;
2022/09/21 03:35:00;;;;;;;0.9;0.9;;;;;;;10.0;100.0;102390;;;;
2022/09/21 03:38:00;;;;;;;0.9;0.9;;;;;;;10.1;100.0;102390;;;;
2022/09/21 03:39:00;;;;;;;0.9;0.9;;;;;;;10.0;100.0;102390;;;;
2022/09/21 03:41:00;;;;;;;0.9;0.9;;;;;;;9.9;100.0;102390;;;;
2022/09/21 03:44:00;;;;;;;0.9;0.9;;;;;;;9.9;100.0;102400;;;;
2022/09/21 03:45:01;;;;;;;0.9;0.9;;;;;;;9.9;100.0;102390;;;;
2022/09/21 03:55:00;;;;;;;1.0;1.0;;;;;;;9.9;100.0;102400;;;;
2022/09/21 03:56:00;;;;;;;1.0;1.0;;;;;;;9.9;100.0;102400;;;;
2022/09/21 03:57:00;;;;;;;1.0;1.0;;;;;;;9.9;100.0;102400;;;;
2022/09/21 03:58:00;;;;;;;1.0;1.0;;;;;;;9.8;100.0;102410;;;;
2022/09/21 03:59:00;;;;;;;1.0;1.0;;;;;;;9.8;100.0;102410;;;;
2022/09/21 04:00:02;;;;;;;1.0;1.0;;;;;;;9.8;100.0;102410;;;;
2022/09/21 04:01:01;;;;;;;1.0;1.0;;;;;;;9.8;100.0;102410;;;;
2022/09/21 04:02:00;;;;;;;1.0;1.0;;;;;;;9.8;100.0;102400;;;;
2022/09/21 04:03:00;;;;;;;1.0;1.0;;;;;;;9.8;100.0;102400;;;;
2022/09/21 04:04:00;;;;;;;1.0;1.0;;;;;;;9.7;100.0;102400;;;;
2022/09/21 04:05:00;;;;;;;1.0;1.0;;;;;;;9.7;100.0;102400;;;;
2022/09/21 04:06:00;;;;;;;1.0;1.0;;;;;;;9.7;100.0;102410;;;;
2022/09/21 04:07:00;;;;;;;1.0;1.0;;;;;;;9.7;100.0;102410;;;;
2022/09/21 04:08:01;;;;;;;1.0;1.0;;;;;;;9.7;100.0;102400;;;;
2022/09/21 04:09:01;;;;;;;1.0;1.0;;;;;;;9.7;100.0;102400;;;;
2022/09/21 04:10:01;;;;;;;1.0;1.0;;;;;;;9.7;100.0;102410;;;;
2022/09/21 04:11:00;;;;;;;1.0;1.0;;;;;;;9.7;100.0;102410;;;;
2022/09/21 04:12:00;;;;;;;1.0;1.0;;;;;;;9.6;100.0;102400;;;;
2022/09/21 04:13:02;;;;;;;1.0;1.0;;;;;;;9.6;100.0;102400;;;;
2022/09/21 04:14:00;;;;;;;1.0;1.0;;;;;;;9.6;100.0;102400;;;;
2022/09/21 04:15:00;;;;;;;1.0;1.0;;;;;;;9.6;100.0;102400;;;;
2022/09/21 04:16:00;;;;;;;1.0;1.0;;;;;;;9.6;100.0;102400;;;;
2022/09/21 04:17:00;;;;;;;1.0;1.0;;;;;;;9.6;100.0;102400;;;;
2022/09/21 04:18:01;;;;;;;1.0;1.0;;;;;;;9.5;100.0;102400;;;;
2022/09/21 04:19:00;;;;;;;1.0;1.0;;;;;;;9.5;100.0;102400;;;;
2022/09/21 04:20:00;;;;;;;1.0;1.0;;;;;;;9.4;100.0;102400;;;;
2022/09/21 04:21:00;;;;;;;1.0;1.0;;;;;;;9.4;100.0;102400;;;;
2022/09/21 04:22:00;;;;;;;1.0;1.0;;;;;;;9.5;100.0;102400;;;;
2022/09/21 04:23:00;;;;;;;1.0;1.0;;;;;;;9.5;100.0;102400;;;;
2022/09/21 04:24:00;;;;;;;1.0;1.0;;;;;;;9.5;100.0;102400;;;;
2022/09/21 04:25:00;;;;;;;1.0;1.0;;;;;;;9.5;100.0;102400;;;;
2022/09/21 04:26:01;;;;;;;1.0;1.0;;;;;;;9.4;100.0;102400;;;;
2022/09/21 04:27:00;;;;;;;1.0;1.0;;;;;;;9.4;100.0;102400;;;;
2022/09/21 04:28:00;;;;;;;1.0;1.0;;;;;;;9.4;100.0;102400;;;;
2022/09/21 04:29:00;;;;;;;1.0;1.0;;;;;;;9.4;100.0;102400;;;;
2022/09/21 04:30:00;;;;;;;1.0;1.0;;;;;;;9.4;100.0;102400;;;;
2022/09/21 04:31:00;;;;;;;1.0;1.0;;;;;;;9.4;100.0;102400;;;;
2022/09/21 04:32:00;;;;;;;1.0;1.0;;;;;;;9.4;100.0;102400;;;;
2022/09/21 04:33:00;;;;;;;1.0;1.0;;;;;;;9.4;100.0;102400;;;;
2022/09/21 04:34:00;;;;;;;1.0;1.0;;;;;;;9.4;100.0;102400;;;;
2022/09/21 04:35:00;;;;;;;1.1;1.1;;;;;;;9.4;100.0;102400;;;;
2022/09/21 04:36:00;;;;;;;1.1;1.1;;;;;;;9.4;100.0;102400;;;;
2022/09/21 04:37:00;;;;;;;1.1;1.1;;;;;;;9.4;100.0;102400;;;;
2022/09/21 04:38:00;;;;;;;1.1;1.1;;;;;;;9.3;100.0;102400;;;;
2022/09/21 04:39:00;;;;;;;1.1;1.1;;;;;;;9.3;100.0;102400;;;;
2022/09/21 04:40:00;;;;;;;1.1;1.1;;;;;;;9.3;100.0;102410;;;;
2022/09/21 04:41:00;;;;;;;1.1;1.1;;;;;;;9.3;100.0;102410;;;;
2022/09/21 04:42:00;;;;;;;1.1;1.1;;;;;;;9.3;100.0;102410;;;;
2022/09/21 04:43:00;;;;;;;1.1;1.1;;;;;;;9.3;100.0;102410;;;;
2022/09/21 04:44:00;;;;;;;1.1;1.1;;;;;;;9.2;100.0;102410;;;;
2022/09/21 04:45:00;;;;;;;1.1;1.1;;;;;;;9.2;100.0;102410;;;;
2022/09/21 04:46:04;;;;;;;1.1;1.1;;;;;;;9.1;100.0;102410;;;;
2022/09/21 04:47:00;;;;;;;1.1;1.1;;;;;;;9.1;100.0;102410;;;;
2022/09/21 04:48:00;;;;;;;1.1;1.1;;;;;;;9.1;100.0;102410;;;;
2022/09/21 04:49:00;;;;;;;1.1;1.1;;;;;;;9.1;100.0;102410;;;;
2022/09/21 04:50:00;;;;;;;1.1;1.1;;;;;;;9.1;100.0;102410;;;;
2022/09/21 04:51:00;;;;;;;1.1;1.1;;;;;;;9.1;100.0;102410;;;;
2022/09/21 04:52:00;;;;;;;1.1;1.1;;;;;;;9.1;100.0;102410;;;;
2022/09/21 04:53:00;;;;;;;1.1;1.1;;;;;;;9.1;100.0;102410;;;;
2022/09/21 04:54:00;;;;;;;1.1;1.1;;;;;;;9.1;100.0;102410;;;;
2022/09/21 04:55:00;;;;;;;1.3;1.3;;;;;;;9.1;100.0;102410;;;;
2022/09/21 04:56:00;;;;;;;1.3;1.3;;;;;;;9.1;100.0;102410;;;;
2022/09/21 04:57:00;;;;;;;1.3;1.3;;;;;;;9.1;100.0;102410;;;;
2022/09/21 04:58:00;;;;;;;1.3;1.3;;;;;;;9.1;100.0;102420;;;;
2022/09/21 04:59:00;;;;;;;1.3;1.3;;;;;;;9.1;100.0;102420;;;;
2022/09/21 05:00:00;;;;;;;1.3;1.3;;;;;;;9.1;100.0;102420;;;;
2022/09/21 05:01:00;;;;;;;1.3;1.3;;;;;;;9.1;100.0;102420;;;;
2022/09/21 05:02:00;;;;;;;1.3;1.3;;;;;;;9.1;100.0;102420;;;;
2022/09/21 05:03:00;;;;;;;1.3;1.3;;;;;;;9.1;100.0;102420;;;;
2022/09/21 05:04:01;;;;;;;1.3;1.3;;;;;;;9.1;100.0;102420;;;;
2022/09/21 05:05:00;;;;;;;1.3;1.3;;;;;;;9.1;100.0;102420;;;;
2022/09/21 05:08:00;;;;;;;1.3;1.3;;;;;;;9.1;100.0;102420;;;;
2022/09/21 05:10:03;;;;;;;1.3;1.3;;;;;;;9.0;100.0;102420;;;;
2022/09/21 05:11:00;;;;;;;1.3;1.3;;;;;;;9.0;100.0;102420;;;;
2022/09/21 05:12:01;;;;;;;1.3;1.3;;;;;;;9.0;100.0;102420;;;;
2022/09/21 05:13:00;;;;;;;1.3;1.3;;;;;;;9.0;100.0;102420;;;;
2022/09/21 05:14:00;;;;;;;1.3;1.3;;;;;;;8.8;100.0;102430;;;;
2022/09/21 05:15:00;;;;;;;1.2;1.2;;;;;;;8.8;100.0;102430;;;;
2022/09/21 05:16:00;;;;;;;1.2;1.2;;;;;;;8.9;100.0;102430;;;;
2022/09/21 05:17:00;;;;;;;1.2;1.2;;;;;;;8.9;100.0;102430;;;;
2022/09/21 05:18:00;;;;;;;1.2;1.2;;;;;;;8.8;100.0;102430;;;;
2022/09/21 05:19:00;;;;;;;1.2;1.2;;;;;;;8.8;100.0;102430;;;;
2022/09/21 05:20:00;;;;;;;1.2;1.2;;;;;;;8.7;100.0;102430;;;;
2022/09/21 05:21:00;;;;;;;1.2;1.2;;;;;;;8.7;100.0;102430;;;;
2022/09/21 05:22:00;;;;;;;1.2;1.2;;;;;;;8.5;100.0;102440;;;;
2022/09/21 05:23:01;;;;;;;1.2;1.2;;;;;;;8.5;100.0;102440;;;;
2022/09/21 05:24:00;;;;;;;1.2;1.2;;;;;;;8.7;100.0;102430;;;;
2022/09/21 05:25:00;;;;;;;1.2;1.2;;;;;;;8.7;100.0;102430;;;;
2022/09/21 05:26:00;;;;;;;1.2;1.2;;;;;;;8.8;100.0;102430;;;;
2022/09/21 05:27:00;;;;;;;1.2;1.2;;;;;;;8.8;100.0;102430;;;;
2022/09/21 05:28:00;;;;;;;1.2;1.2;;;;;;;8.8;100.0;102430;;;;
2022/09/21 05:29:00;;;;;;;1.2;1.2;;;;;;;8.8;100.0;102430;;;;
2022/09/21 05:30:00;;;;;;;1.2;1.2;;;;;;;8.8;100.0;102430;;;;
2022/09/21 05:31:10;;;;;;;1.2;1.2;;;;;;;8.8;100.0;102440;;;;
2022/09/21 05:32:05;;;;;;;1.2;1.2;;;;;;;8.8;100.0;102440;;;;
2022/09/21 05:33:02;;;;;;;1.2;1.2;;;;;;;8.8;100.0;102440;;;;
2022/09/21 05:34:06;;;;;;;1.2;1.2;;;;;;;8.8;100.0;102440;;;;
2022/09/21 05:35:05;;;;;;;1.4;1.4;;;;;;;8.8;100.0;102440;;;;
2022/09/21 05:36:00;;;;;;;1.4;1.4;;;;;;;8.8;100.0;102440;;;;
2022/09/21 05:37:08;;;;;;;1.4;1.4;;;;;;;8.8;100.0;102440;;;;
2022/09/21 05:38:03;;;;;;;1.4;1.4;;;;;;;8.8;100.0;102440;;;;
2022/09/21 05:39:00;;;;;;;1.4;1.4;;;;;;;8.8;100.0;102440;;;;
2022/09/21 05:40:00;;;;;;;1.4;1.4;;;;;;;8.8;100.0;102450;;;;
2022/09/21 05:41:00;;;;;;;1.4;1.4;;;;;;;8.8;100.0;102450;;;;
2022/09/21 05:42:00;;;;;;;1.4;1.4;;;;;;;8.8;100.0;102450;;;;
2022/09/21 05:43:00;;;;;;;1.4;1.4;;;;;;;8.8;100.0;102450;;;;
2022/09/21 05:44:00;;;;;;;1.4;1.4;;;;;;;8.6;100.0;102450;;;;
2022/09/21 05:45:00;;;;;;;1.4;1.4;;;;;;;8.6;100.0;102450;;;;
2022/09/21 05:46:03;;;;;;;1.4;1.4;;;;;;;8.7;100.0;102450;;;;
2022/09/21 05:47:05;;;;;;;1.4;1.4;;;;;;;8.7;100.0;102450;;;;
2022/09/21 05:48:03;;;;;;;1.4;1.4;;;;;;;8.4;100.0;102450;;;;
2022/09/21 05:49:04;;;;;;;1.4;1.4;;;;;;;8.4;100.0;102450;;;;
2022/09/21 05:50:10;;;;;;;1.4;1.4;;;;;;;8.5;100.0;102460;;;;
2022/09/21 05:51:04;;;;;;;1.4;1.4;;;;;;;8.5;100.0;102460;;;;
2022/09/21 05:52:05;;;;;;;1.4;1.4;;;;;;;8.6;100.0;102460;;;;
2022/09/21 05:53:08;;;;;;;1.4;1.4;;;;;;;8.8;100.0;102450;;;;
2022/09/21 05:54:00;;;;;;;1.4;1.4;;;;;;;8.8;100.0;102450;;;;
2022/09/21 05:55:06;;;;;;;1.2;1.2;;;;;;;8.8;100.0;102450;;;;
2022/09/21 05:56:04;;;;;;;1.2;1.2;;;;;;;8.8;100.0;102450;;;;
2022/09/21 05:57:10;;;;;;;1.2;1.2;;;;;;;8.8;100.0;102450;;;;
2022/09/21 05:58:01;;;;;;;1.2;1.2;;;;;;;8.8;100.0;102450;;;;
2022/09/21 05:59:10;;;;;;;1.2;1.2;;;;;;;8.8;100.0;102460;;;;
2022/09/21 06:00:01;;;;;;;1.2;1.2;;;;;;;8.8;100.0;102460;;;;
2022/09/21 06:01:00;;;;;;;1.2;1.2;;;;;;;8.8;100.0;102460;;;;
2022/09/21 06:02:10;;;;;;;1.2;1.2;;;;;;;8.8;100.0;102460;;;;
2022/09/21 06:03:15;;;;;;;1.2;1.2;;;;;;;8.8;100.0;102460;;;;
2022/09/21 06:04:01;;;;;;;1.2;1.2;;;;;;;8.8;100.0;102460;;;;
2022/09/21 06:05:00;;;;;;;1.2;1.2;;;;;;;8.8;100.0;102460;;;;
2022/09/21 06:06:00;;;;;;;1.2;1.2;;;;;;;8.9;100.0;102460;;;;
2022/09/21 06:07:00;;;;;;;1.2;1.2;;;;;;;8.9;100.0;102460;;;;
2022/09/21 06:08:00;;;;;;;1.2;1.2;;;;;;;8.9;100.0;102460;;;;
2022/09/21 06:15:00;;;;;;;1.3;1.3;;;;;;;9.0;100.0;102470;;;;
2022/09/21 06:16:00;;;;;;;1.3;1.3;;;;;;;9.0;100.0;102470;;;;
2022/09/21 06:17:01;;;;;;;1.3;1.3;;;;;;;9.0;100.0;102480;;;;
2022/09/21 06:18:00;;;;;;;1.3;1.3;;;;;;;9.0;100.0;102480;;;;
2022/09/21 06:19:00;;;;;;;1.3;1.3;;;;;;;9.0;100.0;102480;;;;
2022/09/21 06:20:01;;;;;;;1.3;1.3;;;;;;;9.0;100.0;102480;;;;
2022/09/21 06:21:00;;;;;;;1.3;1.3;;;;;;;9.0;100.0;102480;;;;
2022/09/21 06:22:00;;;;;;;1.3;1.3;;;;;;;9.0;100.0;102480;;;;
2022/09/21 06:23:01;;;;;;;1.3;1.3;;;;;;;9.0;100.0;102480;;;;
2022/09/21 06:24:00;;;;;;;1.3;1.3;;;;;;;9.0;100.0;102480;;;;
2022/09/21 06:25:00;;;;;;;1.3;1.3;;;;;;;9.0;100.0;102480;;;;
2022/09/21 06:26:00;;;;;;;1.3;1.3;;;;;;;9.0;100.0;102480;;;;
2022/09/21 06:27:00;;;;;;;1.3;1.3;;;;;;;9.1;100.0;102480;;;;
2022/09/21 06:28:01;;;;;;;1.3;1.3;;;;;;;9.1;100.0;102480;;;;
2022/09/21 06:29:00;;;;;;;1.3;1.3;;;;;;;9.1;100.0;102480;;;;
2022/09/21 06:30:00;;;;;;;1.3;1.3;;;;;;;9.1;100.0;102480;;;;
2022/09/21 06:31:00;;;;;;;1.3;1.3;;;;;;;9.1;100.0;102470;;;;
2022/09/21 06:32:00;;;;;;;1.3;1.3;;;;;;;9.1;100.0;102470;;;;
2022/09/21 06:33:01;;;;;;;1.3;1.3;;;;;;;9.1;100.0;102470;;;;
2022/09/21 06:34:00;;;;;;;1.3;1.3;;;;;;;9.1;100.0;102470;;;;
2022/09/21 06:35:00;;;;;;;1.7;1.7;;;;;;;9.2;100.0;102470;;;;
2022/09/21 06:36:00;;;;;;;1.7;1.7;;;;;;;9.2;100.0;102470;;;;
2022/09/21 06:37:00;;;;;;;1.7;1.7;;;;;;;9.3;100.0;102470;;;;
2022/09/21 06:38:01;;;;;;;1.7;1.7;;;;;;;9.3;100.0;102470;;;;
2022/09/21 06:39:00;;;;;;;1.7;1.7;;;;;;;9.3;100.0;102470;;;;
2022/09/21 06:40:00;;;;;;;1.7;1.7;;;;;;;9.3;100.0;102470;;;;
2022/09/21 06:41:01;;;;;;;1.7;1.7;;;;;;;9.3;100.0;102470;;;;
2022/09/21 06:42:00;;;;;;;1.7;1.7;;;;;;;9.3;100.0;102470;;;;
2022/09/21 06:43:01;;;;;;;1.7;1.7;;;;;;;9.4;100.0;102470;;;;
2022/09/21 06:44:00;;;;;;;1.7;1.7;;;;;;;9.4;100.0;102470;;;;
2022/09/21 06:45:00;;;;;;;1.7;1.7;;;;;;;9.3;100.0;102470;;;;
2022/09/21 06:46:00;;;;;;;1.7;1.7;;;;;;;9.3;100.0;102470;;;;
2022/09/21 06:47:00;;;;;;;1.7;1.7;;;;;;;9.4;100.0;102470;;;;
2022/09/21 06:48:00;;;;;;;1.7;1.7;;;;;;;9.4;100.0;102470;;;;
2022/09/21 06:49:00;;;;;;;1.7;1.7;;;;;;;9.4;100.0;102480;;;;